createdAt,value
2022-09-14T00:01:26.642Z,2.33
2022-09-14T00:03:56.511Z,2.58
2022-09-14T00:06:23.687Z,2.50
2022-09-14T00:08:55.089Z,2.22
2022-09-14T00:11:23.399Z,2.15
2022-09-14T00:13:50.989Z,2.05
2022-09-14T00:16:25.162Z,2.33
2022-09-14T00:21:24.202Z,2.35
2022-09-14T00:23:50.950Z,2.45
2022-09-14T00:26:20.460Z,2.60
2022-09-14T00:28:56.562Z,2.72
2022-09-14T00:31:23.957Z,2.42
2022-09-14T00:33:51.471Z,2.45
2022-09-14T00:36:24.304Z,2.60
2022-09-14T00:38:51.963Z,2.60
2022-09-14T00:41:23.102Z,2.60
2022-09-14T00:44:24.867Z,2.70
2022-09-14T00:46:54.892Z,2.55
2022-09-14T00:49:24.898Z,2.38
2022-09-14T00:52:08.787Z,2.88
2022-09-14T00:54:42.197Z,2.78
2022-09-14T00:57:08.736Z,2.88
2022-09-14T00:59:39.088Z,2.90
2022-09-14T01:02:09.222Z,2.97
2022-09-14T01:04:36.731Z,2.90
2022-09-14T01:07:22.192Z,2.70
2022-09-14T01:09:48.560Z,2.50
2022-09-14T01:12:33.723Z,2.55
2022-09-14T01:15:38.764Z,3.00
2022-09-14T01:18:08.380Z,2.85
2022-09-14T01:21:02.433Z,2.90
2022-09-14T01:23:45.303Z,2.75
2022-09-14T01:26:23.949Z,2.95
2022-09-14T01:28:59.649Z,2.88
2022-09-14T01:31:35.233Z,2.70
2022-09-14T01:34:31.876Z,2.90
2022-09-14T01:37:12.907Z,3.03
2022-09-14T01:39:44.996Z,2.70
2022-09-14T01:42:13.647Z,2.90
2022-09-14T01:44:45.370Z,2.72
2022-09-14T01:47:20.418Z,2.70
2022-09-14T01:49:55.801Z,2.80
2022-09-14T01:52:35.103Z,2.80
2022-09-14T01:55:10.527Z,2.70
2022-09-14T01:57:44.670Z,2.72
2022-09-14T02:02:58.812Z,2.53
2022-09-14T02:05:55.537Z,2.58
2022-09-14T02:08:22.431Z,2.60
2022-09-14T02:10:48.991Z,3.03
2022-09-14T02:13:15.669Z,2.78
2022-09-14T02:15:42.151Z,2.85
2022-09-14T02:18:08.689Z,2.67
2022-09-14T02:20:48.904Z,2.60
2022-09-14T02:23:16.053Z,2.60
2022-09-14T02:25:42.565Z,2.47
2022-09-14T02:28:09.153Z,2.50
2022-09-14T02:30:52.461Z,2.55
2022-09-14T02:33:23.054Z,2.80
2022-09-14T02:36:00.773Z,2.78
2022-09-14T02:38:50.735Z,2.83
2022-09-14T02:41:26.022Z,3.00
2022-09-14T02:44:20.216Z,2.70
2022-09-14T02:47:24.016Z,2.75
2022-09-14T02:50:11.906Z,2.90
2022-09-14T02:53:07.464Z,2.80
2022-09-14T02:55:38.016Z,2.65
2022-09-14T02:58:14.768Z,2.72
2022-09-14T03:00:50.881Z,2.53
2022-09-14T03:03:20.948Z,2.83
2022-09-14T03:05:47.607Z,2.47
2022-09-14T03:08:14.228Z,2.88
2022-09-14T03:10:44.251Z,2.65
2022-09-14T03:13:11.624Z,2.40
2022-09-14T03:15:38.161Z,2.55
2022-09-14T03:18:06.315Z,2.70
2022-09-14T03:20:34.175Z,2.55
2022-09-14T03:23:01.929Z,2.47
2022-09-14T03:25:28.831Z,2.38
2022-09-14T03:27:57.748Z,2.45
2022-09-14T03:30:24.948Z,2.63
2022-09-14T03:32:51.720Z,2.75
2022-09-14T03:35:18.769Z,3.50
2022-09-14T03:37:46.246Z,2.55
2022-09-14T03:40:20.799Z,2.65
2022-09-14T03:42:50.016Z,2.92
2022-09-14T03:45:17.797Z,3.10
2022-09-14T03:47:44.424Z,2.95
2022-09-14T03:50:12.576Z,2.70
2022-09-14T03:52:39.726Z,2.90
2022-09-14T03:55:08.129Z,2.80
2022-09-14T03:57:34.731Z,2.95
2022-09-14T04:00:01.352Z,2.80
2022-09-14T04:02:29.485Z,2.75
2022-09-14T04:04:56.236Z,2.78
2022-09-14T04:07:22.649Z,2.78
2022-09-14T04:09:49.253Z,3.05
2022-09-14T04:12:15.682Z,2.85
2022-09-14T04:14:42.162Z,2.80
2022-09-14T04:17:08.627Z,3.35
2022-09-14T04:19:37.504Z,3.20
2022-09-14T04:22:05.206Z,3.08
2022-09-14T04:24:31.763Z,2.88
2022-09-14T04:26:58.846Z,3.20
2022-09-14T04:29:25.760Z,3.40
2022-09-14T04:31:52.314Z,3.50
2022-09-14T04:34:18.713Z,3.30
2022-09-14T04:36:45.137Z,3.53
2022-09-14T04:39:13.749Z,3.65
2022-09-14T04:41:40.561Z,3.47
2022-09-14T04:44:07.086Z,3.90
2022-09-14T04:46:43.602Z,3.67
2022-09-14T04:49:13.010Z,3.67
2022-09-14T04:51:39.655Z,3.42
2022-09-14T04:54:07.359Z,3.63
2022-09-14T04:56:35.989Z,3.58
2022-09-14T04:59:04.401Z,3.65
2022-09-14T05:01:37.566Z,3.60
2022-09-14T05:04:05.200Z,3.42
2022-09-14T05:06:34.476Z,3.58
2022-09-14T05:09:02.130Z,3.47
2022-09-14T05:11:34.593Z,3.65
2022-09-14T05:14:01.979Z,4.30
2022-09-14T05:16:31.580Z,3.42
2022-09-14T05:19:04.063Z,3.80
2022-09-14T05:21:32.271Z,3.85
2022-09-14T05:24:01.075Z,3.80
2022-09-14T05:26:29.190Z,3.90
2022-09-14T05:31:24.631Z,3.72
2022-09-14T05:36:17.696Z,3.67
2022-09-14T05:38:44.506Z,3.70
2022-09-14T05:41:13.028Z,3.65
2022-09-14T05:43:40.351Z,3.78
2022-09-14T05:46:13.618Z,3.95
2022-09-14T05:48:41.133Z,3.92
2022-09-14T05:51:16.587Z,3.67
2022-09-14T05:53:53.590Z,3.85
2022-09-14T05:56:21.836Z,3.50
2022-09-14T05:58:48.758Z,4.30
2022-09-14T06:01:16.310Z,3.70
2022-09-14T06:03:43.680Z,3.67
2022-09-14T06:06:13.068Z,3.63
2022-09-14T06:08:40.114Z,3.90
2022-09-14T06:11:11.404Z,3.40
2022-09-14T06:13:37.924Z,3.70
2022-09-14T06:16:06.391Z,3.22
2022-09-14T06:18:34.364Z,4.40
2022-09-14T06:21:01.408Z,3.67
2022-09-14T06:23:28.778Z,3.63
2022-09-14T06:25:56.532Z,3.85
2022-09-14T06:28:24.526Z,4.05
2022-09-14T06:30:51.337Z,3.83
2022-09-14T06:33:18.393Z,4.15
2022-09-14T06:35:55.676Z,4.00
2022-09-14T06:38:22.348Z,4.10
2022-09-14T06:40:59.430Z,4.20
2022-09-14T06:43:27.704Z,4.25
2022-09-14T06:46:01.684Z,4.60
2022-09-14T06:48:30.804Z,4.43
2022-09-14T06:50:57.826Z,4.43
2022-09-14T06:53:24.952Z,4.50
2022-09-14T06:55:51.814Z,4.10
2022-09-14T06:58:19.891Z,4.13
2022-09-14T07:03:12.920Z,4.20
2022-09-14T07:05:39.386Z,3.97
2022-09-14T07:08:10.167Z,3.97
2022-09-14T07:10:38.600Z,3.80
2022-09-14T07:13:05.082Z,3.95
2022-09-14T07:15:31.519Z,3.78
2022-09-14T07:17:58.937Z,3.83
2022-09-14T07:20:25.478Z,3.35
2022-09-14T07:22:52.008Z,3.55
2022-09-14T07:25:18.448Z,3.47
2022-09-14T07:27:44.951Z,3.80
2022-09-14T07:30:12.554Z,3.78
2022-09-14T07:32:38.959Z,4.15
2022-09-14T07:35:06.223Z,3.40
2022-09-14T07:37:32.749Z,3.80
2022-09-14T07:39:59.428Z,3.58
2022-09-14T07:42:25.872Z,3.75
2022-09-14T07:44:52.364Z,4.00
2022-09-14T07:47:18.892Z,3.90
2022-09-14T07:49:45.477Z,3.72
2022-09-14T07:52:11.941Z,3.55
2022-09-14T07:54:38.427Z,3.70
2022-09-14T07:57:04.988Z,3.85
2022-09-14T07:59:35.958Z,3.33
2022-09-14T08:02:07.041Z,3.83
2022-09-14T08:04:39.405Z,3.38
2022-09-14T08:07:06.411Z,3.70
2022-09-14T08:09:33.275Z,3.75
2022-09-14T08:12:00.510Z,3.30
2022-09-14T08:14:26.975Z,3.95
2022-09-14T08:16:53.500Z,3.97
2022-09-14T08:19:20.859Z,3.70
2022-09-14T08:21:48.199Z,3.20
2022-09-14T08:24:17.628Z,3.33
2022-09-14T08:26:44.426Z,3.90
2022-09-14T08:29:13.110Z,3.30
2022-09-14T08:31:41.057Z,3.67
2022-09-14T08:34:08.166Z,3.55
2022-09-14T08:36:37.210Z,3.65
2022-09-14T08:39:06.146Z,3.45
2022-09-14T08:41:43.574Z,3.60
2022-09-14T08:44:09.952Z,3.35
2022-09-14T08:46:43.783Z,3.90
2022-09-14T08:49:19.388Z,3.80
2022-09-14T08:51:46.268Z,3.30
2022-09-14T08:54:12.930Z,3.80
2022-09-14T08:56:47.183Z,2.58
2022-09-14T08:59:17.145Z,2.80
2022-09-14T09:02:04.845Z,2.45
2022-09-14T09:04:56.391Z,2.83
2022-09-14T09:08:04.012Z,3.10
2022-09-14T09:10:32.775Z,3.00
2022-09-14T09:13:05.610Z,3.20
2022-09-14T09:15:53.057Z,3.20
2022-09-14T09:18:29.322Z,3.40
2022-09-14T09:21:01.770Z,3.08
2022-09-14T09:23:30.652Z,2.80
2022-09-14T09:26:17.008Z,2.63
2022-09-14T09:28:52.243Z,2.60
2022-09-14T09:31:24.732Z,3.17
2022-09-14T09:33:51.276Z,2.67
2022-09-14T09:36:18.420Z,2.80
2022-09-14T09:38:44.965Z,2.72
2022-09-14T09:41:20.791Z,2.85
2022-09-14T09:44:09.340Z,2.80
2022-09-14T09:46:45.601Z,2.75
2022-09-14T09:49:22.728Z,2.88
2022-09-14T09:51:50.979Z,2.58
2022-09-14T09:54:29.940Z,3.20
2022-09-14T09:57:05.302Z,3.20
2022-09-14T09:59:39.528Z,2.28
2022-09-14T10:02:31.644Z,2.72
2022-09-14T10:05:07.136Z,2.40
2022-09-14T10:07:51.891Z,2.33
2022-09-14T10:10:23.765Z,2.22
2022-09-14T10:12:54.136Z,2.13
2022-09-14T10:15:28.625Z,2.50
2022-09-14T10:18:13.483Z,3.45
2022-09-14T10:20:44.548Z,3.88
2022-09-14T10:23:20.182Z,3.40
2022-09-14T10:25:48.489Z,3.70
2022-09-14T10:28:30.438Z,3.78
2022-09-14T10:31:01.655Z,3.78
2022-09-14T10:33:29.784Z,3.33
2022-09-14T10:36:13.244Z,3.53
2022-09-14T10:38:46.004Z,3.20
2022-09-14T10:41:48.122Z,3.38
2022-09-14T10:44:36.151Z,3.20
2022-09-14T10:47:13.132Z,3.30
2022-09-14T10:49:57.973Z,3.55
2022-09-14T10:52:36.611Z,3.40
2022-09-14T10:55:06.043Z,3.08
2022-09-14T10:57:57.580Z,3.17
2022-09-14T11:00:24.208Z,2.53
2022-09-14T11:02:56.158Z,2.17
2022-09-14T11:05:27.656Z,2.05
2022-09-14T11:08:31.202Z,1.60
2022-09-14T11:11:30.631Z,1.95
2022-09-14T11:14:22.509Z,1.70
2022-09-14T11:17:23.435Z,2.05
2022-09-14T11:19:52.928Z,2.03
2022-09-14T11:22:36.929Z,2.00
2022-09-14T11:25:42.387Z,1.65
2022-09-14T11:28:40.176Z,1.90
2022-09-14T11:31:06.696Z,1.80
2022-09-14T11:33:43.662Z,2.00
2022-09-14T11:36:16.699Z,1.85
2022-09-14T11:38:49.917Z,2.03
2022-09-14T11:41:35.730Z,1.65
2022-09-14T11:44:11.185Z,2.00
2022-09-14T11:46:49.380Z,1.63
2022-09-14T11:49:27.672Z,1.73
2022-09-14T11:52:00.915Z,1.75
2022-09-14T11:54:27.632Z,1.27
2022-09-14T11:57:01.734Z,1.50
2022-09-14T11:59:40.454Z,1.38
2022-09-14T12:02:25.285Z,1.30
2022-09-14T12:05:10.609Z,1.60
2022-09-14T12:07:39.821Z,1.50
2022-09-14T12:10:15.709Z,1.38
2022-09-14T12:12:58.524Z,1.42
2022-09-14T12:15:24.973Z,1.48
2022-09-14T12:18:06.722Z,1.35
2022-09-14T12:20:53.114Z,1.50
2022-09-14T12:23:39.127Z,1.50
2022-09-14T12:26:11.900Z,1.30
2022-09-14T12:28:43.567Z,1.10
2022-09-14T12:31:31.947Z,1.17
2022-09-14T12:34:30.290Z,1.25
2022-09-14T12:39:27.012Z,1.65
2022-09-14T12:41:53.399Z,1.58
2022-09-14T12:44:40.909Z,2.25
2022-09-14T12:47:25.848Z,1.80
2022-09-14T12:49:54.043Z,1.67
2022-09-14T12:52:35.849Z,1.65
2022-09-14T12:55:07.491Z,2.00
2022-09-14T12:57:45.202Z,1.83
2022-09-14T13:00:16.817Z,1.75
2022-09-14T13:03:17.948Z,2.00
2022-09-14T13:05:45.587Z,1.58
2022-09-14T13:08:17.314Z,1.10
2022-09-14T13:10:49.320Z,1.30
2022-09-14T13:13:22.165Z,1.42
2022-09-14T13:15:59.134Z,1.50
2022-09-14T13:18:39.168Z,1.20
2022-09-14T13:23:46.239Z,1.40
2022-09-14T13:26:20.669Z,1.20
2022-09-14T13:28:49.642Z,1.10
2022-09-14T13:31:36.167Z,1.10
2022-09-14T13:34:05.232Z,1.23
2022-09-14T13:36:43.479Z,1.15
2022-09-14T13:39:29.565Z,1.13
2022-09-14T13:44:30.511Z,1.10
2022-09-14T13:49:24.858Z,1.08
2022-09-14T13:51:51.394Z,1.15
2022-09-14T13:54:20.244Z,1.10
2022-09-14T13:56:47.364Z,1.00
2022-09-14T13:59:17.113Z,1.00
2022-09-14T14:01:46.582Z,1.20
2022-09-14T14:04:26.446Z,1.02
2022-09-14T14:07:19.731Z,1.10
2022-09-14T14:09:50.972Z,1.50
2022-09-14T14:12:29.489Z,1.48
2022-09-14T14:15:00.226Z,1.05
2022-09-14T14:17:29.702Z,1.10
2022-09-14T14:19:59.012Z,1.10
2022-09-14T14:22:35.502Z,1.02
2022-09-14T14:25:18.327Z,1.30
2022-09-14T14:27:47.643Z,0.90
2022-09-14T14:30:17.749Z,1.20
2022-09-14T14:32:49.074Z,1.00
2022-09-14T14:35:18.632Z,1.00
2022-09-14T14:37:45.026Z,1.20
2022-09-14T14:40:12.682Z,1.00
2022-09-14T14:45:07.081Z,1.10
2022-09-14T14:47:33.639Z,1.17
2022-09-14T14:50:00.248Z,1.10
2022-09-14T14:52:26.899Z,1.20
2022-09-14T14:54:53.365Z,1.20
2022-09-14T14:57:19.816Z,1.10
2022-09-14T14:59:47.068Z,1.10
2022-09-14T15:02:13.512Z,1.05
2022-09-14T15:04:39.971Z,1.15
2022-09-14T15:07:06.503Z,1.23
2022-09-14T15:09:33.431Z,1.20
2022-09-14T15:12:00.119Z,1.13
2022-09-14T15:14:27.797Z,1.20
2022-09-14T15:19:24.825Z,0.93
2022-09-14T15:21:51.371Z,0.98
2022-09-14T15:24:18.023Z,0.90
2022-09-14T15:26:44.417Z,0.93
2022-09-14T15:29:13.605Z,0.93
2022-09-14T15:31:40.830Z,0.90
2022-09-14T15:34:07.308Z,0.98
2022-09-14T15:36:52.611Z,1.02
2022-09-14T15:39:29.689Z,1.05
2022-09-14T15:41:56.791Z,0.90
2022-09-14T15:44:23.656Z,1.10
2022-09-14T15:46:50.644Z,0.82
2022-09-14T15:49:20.609Z,1.00
2022-09-14T15:51:48.664Z,0.90
2022-09-14T15:54:15.828Z,1.02
2022-09-14T15:56:42.262Z,1.10
2022-09-14T15:59:09.117Z,0.90
2022-09-14T16:01:36.656Z,0.98
2022-09-14T16:04:09.634Z,1.08
2022-09-14T16:06:39.061Z,1.05
2022-09-14T16:09:07.552Z,0.90
2022-09-14T16:11:35.372Z,0.90
2022-09-14T16:16:28.824Z,0.93
2022-09-14T16:18:55.739Z,1.00
2022-09-14T16:21:24.952Z,0.80
2022-09-14T16:23:57.853Z,0.80
2022-09-14T16:26:27.345Z,0.82
2022-09-14T16:28:54.873Z,0.60
2022-09-14T16:31:30.267Z,0.70
2022-09-14T16:33:59.554Z,0.77
2022-09-14T16:36:28.587Z,0.70
2022-09-14T16:39:02.891Z,0.70
2022-09-14T16:41:31.242Z,0.70
2022-09-14T16:43:59.282Z,0.90
2022-09-14T16:46:27.521Z,0.60
2022-09-14T16:48:55.174Z,0.98
2022-09-14T16:51:23.674Z,0.60
2022-09-14T16:53:51.739Z,0.55
2022-09-14T16:56:24.807Z,0.50
2022-09-14T16:58:53.648Z,0.70
2022-09-14T17:01:53.582Z,0.70
2022-09-14T17:04:22.057Z,0.70
2022-09-14T17:06:50.495Z,0.60
2022-09-14T17:09:28.842Z,0.77
2022-09-14T17:11:56.905Z,0.80
2022-09-14T17:14:30.055Z,0.70
2022-09-14T17:16:57.477Z,0.80
2022-09-14T17:19:24.775Z,0.80
2022-09-14T17:21:51.850Z,0.70
2022-09-14T17:24:20.032Z,0.80
2022-09-14T17:26:47.150Z,0.90
2022-09-14T17:29:14.111Z,0.80
2022-09-14T17:31:42.824Z,1.33
2022-09-14T17:34:11.626Z,0.70
2022-09-14T17:36:38.353Z,0.70
2022-09-14T17:39:10.669Z,0.70
2022-09-14T17:41:39.064Z,0.70
2022-09-14T17:44:07.181Z,0.70
2022-09-14T17:46:34.062Z,0.90
2022-09-14T17:49:03.610Z,0.80
2022-09-14T17:51:31.507Z,0.70
2022-09-14T17:54:00.291Z,0.75
2022-09-14T17:56:28.621Z,0.93
2022-09-14T17:59:01.719Z,0.95
2022-09-14T18:01:28.937Z,1.23
2022-09-14T18:03:58.909Z,0.80
2022-09-14T18:06:31.514Z,0.70
2022-09-14T18:09:00.386Z,0.80
2022-09-14T18:11:28.152Z,0.90
2022-09-14T18:13:54.998Z,0.60
2022-09-14T18:16:22.947Z,0.90
2022-09-14T18:21:18.493Z,0.85
2022-09-14T18:23:49.964Z,0.82
2022-09-14T18:26:17.569Z,0.90
2022-09-14T18:28:44.782Z,0.70
2022-09-14T18:31:13.925Z,0.80
2022-09-14T18:33:40.554Z,0.70
2022-09-14T18:36:07.379Z,0.80
2022-09-14T18:38:33.994Z,0.80
2022-09-14T18:41:08.413Z,0.80
2022-09-14T18:43:35.893Z,0.90
2022-09-14T18:46:07.069Z,0.75
2022-09-14T18:48:34.844Z,0.70
2022-09-14T18:51:03.819Z,1.10
2022-09-14T18:53:30.832Z,0.88
2022-09-14T18:56:17.612Z,0.70
2022-09-14T18:58:45.982Z,0.80
2022-09-14T19:01:13.849Z,1.00
2022-09-14T19:03:42.393Z,0.90
2022-09-14T19:06:14.512Z,0.80
2022-09-14T19:08:41.918Z,0.90
2022-09-14T19:11:23.271Z,1.00
2022-09-14T19:13:55.938Z,0.98
2022-09-14T19:16:22.455Z,1.00
2022-09-14T19:18:49.838Z,1.23
2022-09-14T19:21:23.813Z,2.22
2022-09-14T19:24:05.526Z,2.05
2022-09-14T19:26:35.855Z,2.42
2022-09-14T19:29:03.677Z,1.95
2022-09-14T19:31:30.885Z,1.45
2022-09-14T19:33:59.057Z,1.23
2022-09-14T19:36:27.369Z,1.20
2022-09-14T19:38:57.252Z,0.98
2022-09-14T19:41:23.828Z,1.00
2022-09-14T19:43:50.780Z,1.00
2022-09-14T19:46:19.703Z,1.10
2022-09-14T19:48:47.253Z,1.25
2022-09-14T19:51:19.597Z,1.02
2022-09-14T19:53:48.782Z,1.00
2022-09-14T19:56:17.645Z,1.30
2022-09-14T19:58:46.906Z,1.30
2022-09-14T20:01:15.476Z,4.57
2022-09-14T20:03:43.172Z,4.78
2022-09-14T20:06:19.130Z,2.70
2022-09-14T20:08:46.792Z,1.60
2022-09-14T20:11:19.650Z,1.88
2022-09-14T20:13:48.380Z,4.50
2022-09-14T20:16:18.316Z,4.80
2022-09-14T20:18:46.608Z,3.63
2022-09-14T20:21:21.268Z,2.55
2022-09-14T20:24:11.570Z,1.80
2022-09-14T20:26:34.786Z,1.70
2022-09-14T20:29:01.725Z,1.42
2022-09-14T20:31:29.575Z,1.50
2022-09-14T20:33:57.371Z,1.45
2022-09-14T20:36:25.287Z,1.40
2022-09-14T20:38:54.640Z,1.60
2022-09-14T20:41:23.604Z,1.50
2022-09-14T20:43:50.758Z,1.60
2022-09-14T20:46:24.494Z,1.45
2022-09-14T20:48:51.858Z,1.73
2022-09-14T20:51:20.531Z,1.40
2022-09-14T20:53:47.883Z,1.30
2022-09-14T20:56:17.061Z,1.45
2022-09-14T20:58:43.818Z,1.50
2022-09-14T21:01:11.927Z,1.70
2022-09-14T21:03:42.794Z,1.65
2022-09-14T21:06:13.040Z,1.80
2022-09-14T21:08:40.536Z,1.70
2022-09-14T21:11:12.878Z,2.10
2022-09-14T21:13:39.759Z,1.67
2022-09-14T21:16:09.901Z,1.67
2022-09-14T21:18:36.567Z,1.63
2022-09-14T21:21:15.501Z,1.90
2022-09-14T21:23:42.512Z,1.67
2022-09-14T21:26:10.776Z,1.60
2022-09-14T21:28:39.187Z,1.60
2022-09-14T21:31:17.468Z,1.90
2022-09-14T21:33:46.301Z,1.80
2022-09-14T21:36:16.170Z,1.80
2022-09-14T21:38:43.215Z,1.80
2022-09-14T21:41:11.594Z,2.00
2022-09-14T21:43:40.156Z,1.85
2022-09-14T21:46:08.034Z,1.92
2022-09-14T21:48:36.198Z,1.75
2022-09-14T21:53:34.541Z,2.10
2022-09-14T21:56:05.680Z,1.90
2022-09-14T21:58:33.010Z,1.95
2022-09-14T22:01:01.354Z,2.03
2022-09-14T22:03:28.684Z,2.08
2022-09-14T22:05:56.853Z,2.00
2022-09-14T22:08:23.751Z,1.95
2022-09-14T22:10:50.233Z,1.80
2022-09-14T22:13:16.924Z,2.00
2022-09-14T22:15:43.482Z,2.00
2022-09-14T22:18:10.032Z,1.83
2022-09-14T22:20:36.458Z,1.90
2022-09-14T22:23:03.167Z,1.95
2022-09-14T22:25:30.240Z,2.03
2022-09-14T22:27:56.708Z,1.60
2022-09-14T22:30:23.182Z,1.80
2022-09-14T22:32:49.614Z,1.92
2022-09-14T22:35:16.101Z,2.38
2022-09-14T22:37:42.550Z,1.88
2022-09-14T22:40:09.703Z,1.88
2022-09-14T22:42:37.107Z,2.00
2022-09-14T22:45:03.811Z,1.95
2022-09-14T22:47:30.309Z,1.65
2022-09-14T22:49:56.735Z,1.65
2022-09-14T22:52:23.909Z,1.83
2022-09-14T22:54:50.390Z,1.92
2022-09-14T22:57:16.845Z,1.77
2022-09-14T22:59:43.330Z,1.60
2022-09-14T23:02:09.802Z,1.75
2022-09-14T23:04:36.500Z,1.80
2022-09-14T23:07:04.239Z,1.63
2022-09-14T23:09:30.721Z,1.70
2022-09-14T23:11:57.163Z,1.70
2022-09-14T23:14:24.075Z,1.85
2022-09-14T23:16:50.657Z,1.70
2022-09-14T23:19:18.252Z,1.70
2022-09-14T23:21:45.803Z,1.60
2022-09-14T23:24:12.285Z,1.52
2022-09-14T23:26:39.086Z,1.70
2022-09-14T23:29:09.182Z,1.75
2022-09-14T23:31:35.785Z,1.70
2022-09-14T23:34:04.471Z,1.73
2022-09-14T23:36:31.371Z,1.83
2022-09-14T23:38:57.856Z,1.80
2022-09-14T23:41:25.983Z,1.60
2022-09-14T23:46:20.132Z,1.45
2022-09-14T23:48:46.965Z,1.50
2022-09-14T23:51:14.309Z,1.65
2022-09-14T23:53:41.873Z,1.88
2022-09-14T23:56:09.474Z,1.80
2022-09-14T23:58:36.110Z,1.63
